Time;durP1;ratioP1;P1;durP2;ratioP2;P2;SDS_P1;SDS_P2;PMS_P1;PMS_P2;Temp;Humidity;BMP_temperature;BMP_pressure;BME280_temperature;BME280_humidity;BME280_pressure;Samples;Min_cycle;Max_cycle;Signal;HPM_P1;HPM_P2
2023/05/13 00:01:07;;;;;;;15.90;7.72;;;8.70;79.30;;;;;;4986635;28;20535;-82
2023/05/13 00:03:35;;;;;;;14.20;7.88;;;8.70;79.10;;;;;;4990392;28;20690;-81
2023/05/13 00:06:02;;;;;;;19.20;8.00;;;8.50;79.90;;;;;;5008757;28;20054;-82
2023/05/13 00:08:29;;;;;;;19.95;7.72;;;8.50;80.40;;;;;;5010016;28;20149;-82
2023/05/13 00:10:56;;;;;;;14.45;7.88;;;8.50;80.20;;;;;;5003639;28;20069;-82
2023/05/13 00:13:23;;;;;;;17.30;8.40;;;8.50;81.10;;;;;;5009396;28;20088;-82
2023/05/13 00:15:50;;;;;;;24.95;8.80;;;8.40;80.80;;;;;;5010249;28;20085;-82
2023/05/13 00:18:17;;;;;;;16.58;8.40;;;8.40;80.90;;;;;;5002657;28;20482;-81
2023/05/13 00:20:43;;;;;;;15.10;8.82;;;8.30;80.70;;;;;;4990363;28;20101;-82
2023/05/13 00:23:10;;;;;;;16.63;9.32;;;8.30;81.40;;;;;;5010887;28;20521;-81
2023/05/13 00:25:37;;;;;;;20.40;9.38;;;8.20;81.80;;;;;;4991592;28;20046;-81
2023/05/13 00:28:04;;;;;;;17.52;9.05;;;8.20;82.00;;;;;;5013418;28;20100;-81
2023/05/13 00:30:31;;;;;;;16.33;8.77;;;8.20;82.00;;;;;;5006495;28;20046;-81
2023/05/13 00:32:58;;;;;;;18.02;8.95;;;8.10;83.00;;;;;;5009578;28;20501;-81
2023/05/13 00:35:25;;;;;;;17.02;9.20;;;8.00;82.70;;;;;;5011813;28;20056;-81
2023/05/13 00:37:52;;;;;;;14.82;9.20;;;8.00;83.30;;;;;;5001426;28;20053;-82
2023/05/13 00:40:21;;;;;;;12.25;8.40;;;7.90;83.80;;;;;;4985363;28;20097;-82
2023/05/13 00:42:48;;;;;;;19.38;9.48;;;7.80;83.70;;;;;;4989123;28;20265;-81
2023/05/13 00:45:16;;;;;;;17.10;9.23;;;7.70;83.90;;;;;;4991816;28;20100;-82
2023/05/13 00:47:43;;;;;;;20.70;9.60;;;7.70;84.70;;;;;;4990765;28;20077;-82
2023/05/13 00:50:10;;;;;;;18.40;9.07;;;7.70;84.90;;;;;;5010727;28;20054;-82
2023/05/13 00:52:38;;;;;;;22.67;9.40;;;7.70;84.50;;;;;;5005781;28;20506;-81
2023/05/13 00:55:06;;;;;;;13.40;9.25;;;7.70;84.80;;;;;;4987215;28;20052;-81
2023/05/13 00:57:34;;;;;;;17.10;9.55;;;7.60;85.00;;;;;;4985329;28;20050;-82
2023/05/13 01:00:02;;;;;;;16.23;9.52;;;7.60;84.70;;;;;;4989347;28;20681;-82
2023/05/13 01:02:41;;;;;;;21.33;9.65;;;7.60;84.70;;;;;;5000444;28;20494;-82
2023/05/13 01:05:14;;;;;;;15.85;9.02;;;7.50;84.80;;;;;;5003826;28;20506;-81
2023/05/13 01:07:52;;;;;;;16.15;9.40;;;7.50;85.40;;;;;;5003515;28;20616;-82
2023/05/13 01:10:43;;;;;;;21.98;10.25;;;7.50;85.30;;;;;;5001334;28;20046;-81
2023/05/13 01:13:17;;;;;;;19.85;9.98;;;7.40;85.40;;;;;;5002471;28;20768;-81
2023/05/13 01:19:43;;;;;;;17.05;9.40;;;7.40;85.30;;;;;;5018652;23;20514;-83
2023/05/13 01:22:10;;;;;;;19.40;9.23;;;7.40;86.40;;;;;;4975888;28;20597;-73
2023/05/13 01:24:37;;;;;;;17.38;10.23;;;7.30;85.60;;;;;;4963675;28;20054;-73
2023/05/13 01:27:05;;;;;;;21.20;10.10;;;7.30;86.60;;;;;;5039046;23;20041;-73
2023/05/13 01:29:32;;;;;;;21.88;9.77;;;7.30;86.60;;;;;;5006447;28;20112;-73
2023/05/13 01:32:01;;;;;;;18.88;10.00;;;7.30;86.60;;;;;;5001977;28;20041;-73
2023/05/13 01:34:28;;;;;;;19.33;9.77;;;7.30;86.30;;;;;;5012469;28;20045;-73
2023/05/13 01:36:55;;;;;;;16.38;9.27;;;7.20;86.20;;;;;;5000185;28;20125;-73
2023/05/13 01:39:23;;;;;;;24.45;10.15;;;7.20;86.70;;;;;;5005171;28;20042;-73
2023/05/13 01:41:50;;;;;;;17.52;9.43;;;7.20;86.90;;;;;;5001330;28;20248;-73
2023/05/13 01:44:17;;;;;;;24.95;9.95;;;7.20;86.80;;;;;;5005655;28;20129;-73
2023/05/13 01:46:45;;;;;;;19.92;10.55;;;7.10;87.10;;;;;;5007955;28;20072;-73
2023/05/13 01:49:12;;;;;;;20.00;10.35;;;7.10;87.60;;;;;;5004057;28;20117;-73
2023/05/13 01:51:40;;;;;;;17.10;10.68;;;7.10;87.20;;;;;;5001409;28;20744;-73
2023/05/13 01:54:07;;;;;;;22.60;11.05;;;7.00;87.80;;;;;;4997488;28;20052;-73
2023/05/13 01:56:34;;;;;;;16.08;10.25;;;7.00;88.20;;;;;;5006256;28;20049;-73
2023/05/13 01:59:01;;;;;;;19.92;10.55;;;7.00;87.80;;;;;;4996119;28;20081;-73
2023/05/13 02:01:27;;;;;;;17.15;10.65;;;7.00;87.60;;;;;;4995619;28;20053;-73
2023/05/13 02:03:58;;;;;;;24.42;10.00;;;6.90;88.20;;;;;;5002010;28;20053;-72
2023/05/13 02:06:26;;;;;;;24.23;10.65;;;6.90;88.30;;;;;;5002362;28;20053;-72
2023/05/13 02:08:53;;;;;;;24.20;10.48;;;6.90;88.20;;;;;;5003470;28;20165;-73
2023/05/13 02:11:21;;;;;;;17.77;10.23;;;6.80;88.00;;;;;;5007596;28;20050;-73
2023/05/13 02:13:48;;;;;;;25.27;10.52;;;6.80;88.50;;;;;;4998340;28;20056;-73
2023/05/13 02:16:19;;;;;;;22.05;10.55;;;6.70;89.10;;;;;;4990812;28;20078;-72
2023/05/13 02:18:46;;;;;;;24.98;10.07;;;6.70;89.20;;;;;;5002491;28;20152;-73
2023/05/13 02:21:12;;;;;;;17.20;10.13;;;6.60;89.00;;;;;;5004259;28;20041;-73
2023/05/13 02:23:39;;;;;;;23.80;10.95;;;6.60;89.40;;;;;;4999265;28;20514;-72
2023/05/13 02:26:06;;;;;;;20.85;11.65;;;6.60;90.00;;;;;;5001850;28;20053;-73
2023/05/13 02:28:33;;;;;;;21.13;11.57;;;6.50;90.00;;;;;;4999948;28;20069;-72
2023/05/13 02:31:00;;;;;;;18.13;10.90;;;6.50;90.00;;;;;;5003043;28;20053;-73
2023/05/13 02:33:26;;;;;;;19.27;10.93;;;6.50;89.70;;;;;;4997567;28;20115;-72
2023/05/13 02:35:53;;;;;;;26.70;11.73;;;6.40;89.80;;;;;;4997573;28;20042;-73
2023/05/13 02:38:20;;;;;;;19.38;10.73;;;6.40;90.20;;;;;;5000599;28;20049;-73
2023/05/13 02:40:47;;;;;;;24.45;11.63;;;6.40;90.30;;;;;;5003588;28;20100;-73
2023/05/13 02:43:14;;;;;;;17.48;10.45;;;6.50;90.40;;;;;;4999190;28;20050;-73
2023/05/13 02:45:40;;;;;;;20.40;10.43;;;6.50;90.60;;;;;;5004515;28;20140;-73
2023/05/13 02:48:09;;;;;;;23.30;11.23;;;6.50;90.10;;;;;;5001103;28;20046;-73
2023/05/13 02:50:36;;;;;;;26.10;11.55;;;6.50;90.10;;;;;;4999518;28;20100;-73
2023/05/13 02:53:03;;;;;;;18.30;10.05;;;6.40;90.20;;;;;;4995702;28;20046;-73
2023/05/13 02:55:30;;;;;;;18.35;11.13;;;6.40;89.70;;;;;;5000347;28;20073;-73
2023/05/13 02:57:57;;;;;;;23.50;10.95;;;6.40;90.30;;;;;;4990858;28;20078;-72
2023/05/13 03:00:24;;;;;;;22.13;10.85;;;6.30;90.00;;;;;;5002615;28;20045;-72
2023/05/13 03:02:51;;;;;;;19.90;10.40;;;6.40;90.40;;;;;;5002536;28;20128;-73
2023/05/13 03:05:18;;;;;;;22.73;10.82;;;6.30;89.90;;;;;;5000053;28;20054;-73
2023/05/13 03:07:44;;;;;;;16.98;11.25;;;6.30;90.50;;;;;;4995919;28;20061;-72
2023/05/13 03:10:12;;;;;;;21.48;10.45;;;6.30;90.70;;;;;;5005354;28;20100;-73
2023/05/13 03:12:39;;;;;;;18.20;10.68;;;6.20;90.10;;;;;;5003609;28;20042;-73
2023/05/13 03:15:06;;;;;;;17.80;10.27;;;6.20;91.00;;;;;;5001477;28;20052;-73
2023/05/13 03:17:33;;;;;;;25.52;10.85;;;6.20;90.90;;;;;;5001930;28;20065;-73
2023/05/13 03:20:00;;;;;;;19.38;11.18;;;6.20;91.50;;;;;;5006418;28;20851;-73
2023/05/13 03:22:26;;;;;;;19.52;11.15;;;6.20;91.40;;;;;;4996430;28;20137;-73
2023/05/13 03:24:53;;;;;;;20.98;11.63;;;6.20;91.30;;;;;;5005247;28;20049;-73
2023/05/13 03:27:20;;;;;;;24.38;11.95;;;6.20;91.60;;;;;;5001034;28;20826;-73
2023/05/13 03:29:47;;;;;;;23.40;11.20;;;6.20;91.30;;;;;;5005662;28;20056;-73
2023/05/13 03:32:14;;;;;;;19.85;10.68;;;6.10;91.30;;;;;;5003746;28;20104;-72
2023/05/13 03:34:41;;;;;;;18.95;11.02;;;6.20;91.30;;;;;;5005043;28;20049;-73
2023/05/13 03:37:08;;;;;;;17.45;10.82;;;6.30;90.90;;;;;;5005476;28;20049;-73
2023/05/13 03:39:35;;;;;;;19.00;11.07;;;6.30;90.50;;;;;;4999875;28;20061;-72
2023/05/13 03:42:02;;;;;;;21.55;11.93;;;6.30;90.50;;;;;;4998736;28;20057;-73
2023/05/13 03:44:29;;;;;;;21.10;11.75;;;6.40;90.30;;;;;;5004320;28;20050;-73
2023/05/13 03:46:56;;;;;;;24.38;12.00;;;6.40;90.40;;;;;;5006756;28;20060;-73
2023/05/13 03:49:22;;;;;;;24.02;12.60;;;6.40;90.10;;;;;;5004001;28;20056;-73
2023/05/13 03:51:49;;;;;;;19.02;11.75;;;6.50;90.40;;;;;;5005442;28;20529;-73
2023/05/13 03:54:16;;;;;;;20.65;11.45;;;6.50;90.90;;;;;;5000769;28;20049;-72
2023/05/13 03:56:43;;;;;;;19.15;11.32;;;6.50;90.70;;;;;;5003943;28;20054;-72
2023/05/13 03:59:10;;;;;;;21.15;11.57;;;6.60;90.70;;;;;;5000843;28;20832;-73
2023/05/13 04:01:36;;;;;;;32.08;11.57;;;6.60;90.70;;;;;;5001808;28;20046;-73
2023/05/13 04:04:03;;;;;;;19.00;10.63;;;6.60;90.10;;;;;;5008624;28;20057;-73
2023/05/13 04:06:30;;;;;;;23.85;11.68;;;6.60;90.30;;;;;;5007092;28;20056;-73
2023/05/13 04:08:57;;;;;;;22.38;11.18;;;6.70;90.50;;;;;;5005753;28;20048;-72
2023/05/13 04:11:24;;;;;;;22.15;11.27;;;6.70;90.40;;;;;;5003844;28;20050;-72
2023/05/13 04:13:51;;;;;;;22.52;11.40;;;6.80;90.20;;;;;;5001905;28;20050;-73
2023/05/13 04:16:18;;;;;;;31.73;11.65;;;6.80;90.10;;;;;;5010354;28;20049;-73
2023/05/13 04:18:45;;;;;;;19.83;10.90;;;6.80;90.10;;;;;;5002886;28;20052;-73
2023/05/13 04:21:12;;;;;;;21.30;12.70;;;6.90;89.90;;;;;;4999732;28;20133;-73
2023/05/13 04:23:38;;;;;;;26.77;11.27;;;6.90;89.70;;;;;;5002435;28;20513;-73
2023/05/13 04:26:05;;;;;;;18.55;10.73;;;7.00;89.70;;;;;;5006798;28;20750;-73
2023/05/13 04:28:33;;;;;;;24.00;11.18;;;7.10;89.90;;;;;;5001709;28;20069;-73
2023/05/13 04:31:01;;;;;;;18.33;10.73;;;7.10;89.20;;;;;;5004583;28;20056;-73
2023/05/13 04:33:28;;;;;;;21.35;10.77;;;7.20;89.70;;;;;;5005181;28;20042;-72
2023/05/13 04:35:55;;;;;;;22.48;11.30;;;7.30;89.20;;;;;;5002371;28;20077;-73
2023/05/13 04:38:22;;;;;;;20.08;11.90;;;7.30;89.80;;;;;;5001013;28;20497;-72
2023/05/13 04:40:49;;;;;;;19.83;11.05;;;7.50;89.30;;;;;;4999611;28;20049;-72
2023/05/13 04:43:17;;;;;;;22.77;11.52;;;7.60;89.30;;;;;;5003879;28;20569;-72
2023/05/13 04:45:46;;;;;;;18.70;11.02;;;7.70;89.20;;;;;;5001100;28;20062;-73
2023/05/13 04:48:13;;;;;;;27.98;12.07;;;7.80;88.90;;;;;;5000704;28;20058;-73
2023/05/13 04:50:46;;;;;;;25.63;10.90;;;8.00;88.40;;;;;;5000203;28;20067;-73
2023/05/13 04:53:14;;;;;;;23.08;11.73;;;8.10;87.90;;;;;;4999990;28;20502;-73
2023/05/13 04:55:41;;;;;;;19.80;11.85;;;8.20;87.70;;;;;;5003397;28;20164;-73
2023/05/13 04:58:08;;;;;;;22.60;10.82;;;8.40;87.80;;;;;;4997715;28;20050;-73
2023/05/13 05:00:35;;;;;;;20.00;11.10;;;8.50;87.40;;;;;;5004946;28;20046;-73
2023/05/13 05:03:01;;;;;;;21.45;11.07;;;8.50;86.70;;;;;;5002206;28;20402;-73
2023/05/13 05:05:29;;;;;;;23.02;10.85;;;8.60;86.70;;;;;;5002296;28;20046;-73
2023/05/13 05:07:55;;;;;;;22.33;11.55;;;8.70;86.10;;;;;;5004828;28;20165;-74
2023/05/13 05:10:22;;;;;;;19.38;11.00;;;8.80;85.20;;;;;;4996726;28;20053;-73
2023/05/13 05:12:49;;;;;;;24.60;11.02;;;9.10;83.70;;;;;;4997844;28;20042;-73
2023/05/13 05:15:16;;;;;;;27.25;10.07;;;9.20;84.20;;;;;;5001694;28;20172;-74
2023/05/13 05:17:43;;;;;;;19.63;10.75;;;9.40;84.40;;;;;;5000505;28;20073;-77
2023/05/13 05:20:12;;;;;;;19.05;9.85;;;9.50;83.00;;;;;;5003613;28;20081;-75
2023/05/13 05:22:40;;;;;;;23.77;9.02;;;9.70;82.20;;;;;;5000937;28;20057;-75
2023/05/13 05:25:08;;;;;;;19.35;9.15;;;9.80;82.80;;;;;;5004092;28;20049;-79
2023/05/13 05:27:35;;;;;;;19.02;9.65;;;9.80;82.00;;;;;;4999218;28;20137;-75
2023/05/13 05:30:02;;;;;;;24.83;9.50;;;10.00;81.30;;;;;;5004245;28;20050;-79
2023/05/13 05:32:29;;;;;;;14.80;9.32;;;10.10;80.80;;;;;;5003411;28;20060;-79
2023/05/13 05:34:56;;;;;;;20.17;9.75;;;10.20;80.90;;;;;;5001738;28;20053;-82
2023/05/13 05:37:23;;;;;;;16.70;9.13;;;10.30;81.00;;;;;;5002358;28;20065;-80
2023/05/13 05:39:50;;;;;;;17.00;9.25;;;10.50;79.40;;;;;;5000198;28;20054;-76
2023/05/13 05:42:17;;;;;;;21.52;8.98;;;10.60;79.30;;;;;;5003776;28;20982;-81
2023/05/13 05:44:43;;;;;;;16.73;8.70;;;10.80;79.20;;;;;;5002367;28;20161;-76
2023/05/13 05:47:10;;;;;;;17.33;8.63;;;11.00;78.20;;;;;;5002764;28;20049;-78
2023/05/13 05:49:37;;;;;;;20.15;8.52;;;11.10;77.70;;;;;;5000236;28;20521;-75
2023/05/13 05:52:04;;;;;;;13.52;8.05;;;11.20;78.00;;;;;;4997775;28;20058;-76
2023/05/13 05:54:31;;;;;;;15.50;7.97;;;11.40;76.90;;;;;;4999731;28;20574;-75
2023/05/13 05:56:58;;;;;;;14.15;7.10;;;11.60;76.40;;;;;;5003122;28;20329;-76
2023/05/13 05:59:25;;;;;;;15.73;7.85;;;11.80;75.20;;;;;;4999843;28;20053;-76
2023/05/13 06:01:52;;;;;;;15.32;6.97;;;12.00;75.80;;;;;;4993454;28;20145;-77
2023/05/13 06:04:18;;;;;;;16.20;7.13;;;12.20;72.50;;;;;;4998807;28;20433;-75
2023/05/13 06:06:45;;;;;;;15.80;7.55;;;12.50;70.00;;;;;;4994181;28;20067;-78
2023/05/13 06:09:12;;;;;;;13.23;6.45;;;12.70;68.80;;;;;;4995047;28;20058;-76
2023/05/13 06:11:40;;;;;;;15.07;6.28;;;13.00;70.00;;;;;;5000403;28;20137;-75
2023/05/13 06:14:08;;;;;;;11.02;6.47;;;13.50;67.80;;;;;;4994700;28;20077;-76
2023/05/13 06:16:35;;;;;;;10.13;5.82;;;14.00;65.00;;;;;;4994868;28;20042;-76
2023/05/13 06:19:02;;;;;;;13.93;6.15;;;14.40;64.60;;;;;;4995877;28;20053;-76
2023/05/13 06:21:30;;;;;;;9.00;5.13;;;14.80;63.40;;;;;;5003291;28;20077;-74
2023/05/13 06:23:57;;;;;;;13.57;5.90;;;15.10;61.80;;;;;;5002129;28;20737;-73
2023/05/13 06:26:24;;;;;;;9.70;5.55;;;15.40;60.50;;;;;;4997944;28;20558;-73
2023/05/13 06:28:51;;;;;;;15.15;5.53;;;15.80;61.70;;;;;;4999538;28;20906;-74
2023/05/13 06:31:18;;;;;;;12.90;5.85;;;16.30;58.00;;;;;;4996376;28;20360;-73
2023/05/13 06:33:44;;;;;;;13.25;6.00;;;16.70;59.70;;;;;;4998554;28;20050;-73
2023/05/13 06:36:12;;;;;;;16.60;6.68;;;17.20;56.00;;;;;;5000633;28;20046;-74
2023/05/13 06:38:38;;;;;;;13.43;6.13;;;17.60;54.90;;;;;;5005343;28;20495;-73
2023/05/13 06:41:05;;;;;;;8.13;5.22;;;17.80;54.80;;;;;;4999822;28;20053;-74
2023/05/13 06:43:32;;;;;;;49.47;7.18;;;18.40;54.30;;;;;;4999141;28;20153;-73
2023/05/13 06:45:59;;;;;;;14.88;5.55;;;18.80;52.50;;;;;;5005208;28;20060;-73
2023/05/13 06:48:26;;;;;;;39.58;7.20;;;19.30;52.00;;;;;;5003154;28;20100;-73
2023/05/13 06:50:53;;;;;;;27.98;7.22;;;19.90;50.60;;;;;;5006277;28;20045;-72
2023/05/13 06:53:20;;;;;;;10.25;4.78;;;20.30;49.30;;;;;;4993049;28;20132;-73
2023/05/13 06:55:47;;;;;;;19.70;6.43;;;20.60;49.80;;;;;;5003613;28;20068;-73
2023/05/13 06:58:14;;;;;;;9.30;4.25;;;21.10;47.30;;;;;;5001669;28;20054;-73
2023/05/13 07:00:41;;;;;;;12.68;4.57;;;21.40;46.80;;;;;;5001725;28;20165;-73
2023/05/13 07:03:08;;;;;;;7.47;4.53;;;21.80;46.70;;;;;;5000190;28;20056;-73
2023/05/13 07:05:35;;;;;;;12.68;4.47;;;21.60;45.60;;;;;;4999118;28;20136;-73
2023/05/13 07:08:05;;;;;;;7.72;4.68;;;21.70;45.70;;;;;;4999098;28;20057;-73
2023/05/13 07:10:33;;;;;;;12.57;5.13;;;22.00;45.00;;;;;;5002722;28;20108;-73
2023/05/13 07:13:03;;;;;;;7.75;4.35;;;22.10;43.70;;;;;;5004876;28;20049;-73
2023/05/13 07:15:30;;;;;;;10.75;4.85;;;21.70;43.20;;;;;;5002957;28;20074;-73
2023/05/13 07:17:56;;;;;;;9.02;4.80;;;21.10;46.20;;;;;;5002139;28;20050;-82
2023/05/13 07:20:25;;;;;;;7.32;4.10;;;20.80;46.10;;;;;;5006003;28;20038;-82
2023/05/13 07:22:52;;;;;;;11.98;4.43;;;20.60;47.30;;;;;;5005258;28;20046;-82
2023/05/13 07:25:19;;;;;;;9.23;4.25;;;20.60;48.20;;;;;;5006030;28;20149;-82
2023/05/13 07:27:46;;;;;;;13.05;4.30;;;21.20;46.40;;;;;;5005222;28;20507;-82
2023/05/13 07:30:13;;;;;;;11.80;4.15;;;21.10;47.70;;;;;;5006558;28;20042;-82
2023/05/13 07:36:08;;;;;;;7.68;4.28;;;21.50;46.30;;;;;;5001591;28;20064;-73
2023/05/13 07:38:35;;;;;;;10.10;4.47;;;22.00;49.00;;;;;;5003278;28;20050;-73
2023/05/13 07:41:01;;;;;;;8.20;4.05;;;22.00;45.40;;;;;;5019518;28;20054;-73
2023/05/13 07:43:28;;;;;;;9.15;3.55;;;21.90;48.20;;;;;;4999560;28;20080;-73
2023/05/13 07:45:55;;;;;;;8.70;4.72;;;22.30;42.50;;;;;;5000400;28;20053;-73
2023/05/13 07:48:24;;;;;;;11.75;4.47;;;22.00;43.60;;;;;;4998490;28;20123;-73
2023/05/13 07:50:51;;;;;;;9.05;4.63;;;22.50;44.20;;;;;;4999052;28;20815;-73
2023/05/13 07:53:18;;;;;;;6.47;3.97;;;22.90;44.60;;;;;;5000324;28;20569;-73
2023/05/13 07:55:49;;;;;;;11.38;3.88;;;23.20;43.80;;;;;;5014488;28;21020;-73
2023/05/13 07:58:17;;;;;;;10.43;4.07;;;24.00;43.00;;;;;;5012219;28;20052;-73
2023/05/13 08:00:44;;;;;;;6.90;3.83;;;24.30;41.60;;;;;;4998723;28;20161;-73
2023/05/13 08:03:11;;;;;;;10.18;3.80;;;24.40;40.70;;;;;;5000237;28;20060;-73
2023/05/13 08:05:38;;;;;;;7.55;3.42;;;24.70;42.70;;;;;;4995879;28;20061;-73
2023/05/13 08:08:05;;;;;;;6.05;3.42;;;25.10;41.60;;;;;;4994655;28;20049;-73
2023/05/13 08:10:32;;;;;;;12.48;4.25;;;25.70;41.20;;;;;;4998549;28;20054;-73
2023/05/13 08:12:59;;;;;;;12.65;3.28;;;26.50;40.20;;;;;;4999114;28;20105;-73
2023/05/13 08:15:27;;;;;;;6.93;4.18;;;26.90;41.60;;;;;;4998728;28;20074;-74
2023/05/13 08:17:53;;;;;;;9.57;3.13;;;27.10;41.20;;;;;;5000914;28;20046;-73
2023/05/13 08:20:25;;;;;;;5.50;3.15;;;27.30;40.20;;;;;;5003675;28;20045;-74
2023/05/13 08:22:52;;;;;;;10.93;3.53;;;27.30;37.40;;;;;;4999818;28;20049;-73
2023/05/13 08:25:19;;;;;;;5.68;3.40;;;27.10;41.00;;;;;;5003699;28;20050;-73
2023/05/13 08:27:46;;;;;;;9.32;3.83;;;27.60;38.70;;;;;;4996301;28;20050;-74
2023/05/13 08:30:13;;;;;;;11.27;3.60;;;27.70;39.40;;;;;;5002317;28;20073;-74
2023/05/13 08:32:40;;;;;;;6.07;3.28;;;28.10;39.20;;;;;;4996104;28;20109;-73
2023/05/13 08:38:11;;;;;;;6.47;3.25;;;28.70;34.80;;;;;;4943189;28;20410;-73
2023/05/13 08:40:38;;;;;;;7.85;2.72;;;28.70;37.10;;;;;;4943930;29;20059;-73
2023/05/13 08:43:06;;;;;;;6.60;2.63;;;29.10;35.10;;;;;;4944161;28;20055;-73
2023/05/13 08:45:35;;;;;;;5.47;2.67;;;29.30;34.80;;;;;;4957708;28;20428;-73
2023/05/13 08:48:04;;;;;;;10.05;2.72;;;29.40;34.90;;;;;;4942321;28;20049;-74
2023/05/13 08:50:31;;;;;;;7.70;3.05;;;29.50;33.80;;;;;;4939766;29;20055;-74
2023/05/13 08:53:01;;;;;;;6.90;3.30;;;29.90;35.10;;;;;;4935576;28;20058;-74
2023/05/13 08:55:28;;;;;;;10.48;3.38;;;30.20;35.90;;;;;;4935129;29;20055;-75
2023/05/13 08:57:55;;;;;;;9.15;2.92;;;30.30;35.40;;;;;;4941178;28;20134;-74
2023/05/13 09:00:22;;;;;;;10.57;2.60;;;30.80;31.80;;;;;;4941989;29;20047;-78
2023/05/13 09:02:50;;;;;;;8.73;3.15;;;30.50;33.00;;;;;;4940422;29;20062;-78
2023/05/13 09:05:17;;;;;;;8.25;3.53;;;30.60;34.10;;;;;;4946300;29;20062;-84
2023/05/13 09:07:44;;;;;;;6.35;2.72;;;30.60;31.80;;;;;;4950676;28;20083;-81
2023/05/13 09:10:11;;;;;;;10.30;2.95;;;30.70;32.70;;;;;;4948763;28;20918;-83
2023/05/13 09:12:52;;;;;;;5.85;2.88;;;30.80;32.90;;;;;;4949605;28;20055;-85
2023/05/13 09:15:24;;;;;;;4.93;2.60;;;31.30;31.70;;;;;;4949892;29;20523;-86
2023/05/13 09:17:57;;;;;;;10.00;3.00;;;30.50;30.90;;;;;;4948359;28;20059;-85
2023/05/13 09:20:24;;;;;;;6.65;2.33;;;30.90;31.60;;;;;;4949499;28;20241;-85
2023/05/13 09:22:52;;;;;;;9.40;2.90;;;31.20;31.30;;;;;;4941593;29;20047;-86
2023/05/13 09:25:22;;;;;;;4.97;2.80;;;31.20;30.80;;;;;;4944630;28;20132;-86
2023/05/13 09:28:01;;;;;;;7.53;2.83;;;31.50;32.20;;;;;;4950077;28;20043;-86
2023/05/13 09:30:29;;;;;;;7.57;2.88;;;31.70;31.10;;;;;;4940910;28;20083;-85
2023/05/13 09:33:08;;;;;;;5.68;2.90;;;31.70;30.40;;;;;;4945518;29;20049;-86
2023/05/13 09:35:47;;;;;;;5.07;2.97;;;31.20;30.60;;;;;;4944202;29;20051;-84
2023/05/13 09:38:28;;;;;;;5.63;3.08;;;31.30;31.20;;;;;;4951796;29;20051;-85
2023/05/13 09:40:56;;;;;;;8.82;2.65;;;32.20;31.00;;;;;;4953174;28;20055;-86
2023/05/13 09:43:25;;;;;;;6.45;2.55;;;32.80;28.80;;;;;;4953085;28;20047;-86
2023/05/13 09:45:59;;;;;;;5.47;3.25;;;33.10;30.50;;;;;;4953370;28;20051;-84
2023/05/13 09:48:29;;;;;;;9.48;3.00;;;33.30;30.10;;;;;;4950846;29;20410;-83
2023/05/13 09:50:56;;;;;;;7.47;2.90;;;33.20;30.30;;;;;;4950363;28;20106;-87
2023/05/13 09:53:25;;;;;;;5.03;2.20;;;33.30;28.90;;;;;;4968838;28;20043;-88
2023/05/13 09:55:53;;;;;;;6.65;2.10;;;33.10;27.20;;;;;;4953863;28;20059;-88
2023/05/13 09:58:23;;;;;;;8.35;2.65;;;32.00;29.40;;;;;;4952946;29;20396;-89
2023/05/13 10:00:50;;;;;;;7.22;2.47;;;32.50;29.60;;;;;;4949413;28;20047;-82
2023/05/13 10:03:17;;;;;;;12.70;2.45;;;32.60;29.20;;;;;;4949581;28;20740;-86
2023/05/13 10:05:44;;;;;;;6.20;1.75;;;32.10;27.10;;;;;;4949735;28;20055;-86
2023/05/13 10:08:13;;;;;;;7.18;2.38;;;31.40;28.20;;;;;;4952761;28;20049;-86
2023/05/13 10:10:44;;;;;;;8.00;2.35;;;30.10;29.80;;;;;;4943269;28;20074;-86
2023/05/13 10:13:13;;;;;;;3.30;2.35;;;30.80;28.40;;;;;;4948498;29;20046;-85
2023/05/13 10:15:54;;;;;;;4.05;2.53;;;30.70;29.80;;;;;;4950960;28;20058;-87
2023/05/13 10:18:25;;;;;;;3.05;2.00;;;30.50;29.60;;;;;;4948539;29;20098;-85
2023/05/13 10:20:52;;;;;;;11.38;3.10;;;30.40;29.20;;;;;;4951099;28;20055;-84
2023/05/13 10:23:21;;;;;;;12.98;2.60;;;31.40;29.00;;;;;;4952515;28;20058;-80
2023/05/13 10:25:50;;;;;;;14.63;2.55;;;31.10;27.70;;;;;;4948246;29;20059;-84
2023/05/13 10:28:18;;;;;;;4.20;2.30;;;30.60;28.90;;;;;;4952169;28;20047;-88
2023/05/13 10:30:45;;;;;;;3.55;2.15;;;31.50;28.60;;;;;;4952302;28;20087;-90
2023/05/13 10:33:12;;;;;;;4.20;2.38;;;31.30;27.40;;;;;;4954569;28;20049;-88
2023/05/13 10:35:48;;;;;;;4.82;2.72;;;30.70;28.70;;;;;;4954863;29;20051;-90
2023/05/13 10:38:33;;;;;;;5.32;2.55;;;31.00;28.50;;;;;;4952692;29;20059;-87
2023/05/13 10:41:28;;;;;;;5.32;2.92;;;30.00;28.50;;;;;;4959941;28;20051;-83
2023/05/13 10:43:57;;;;;;;4.25;2.90;;;31.20;29.10;;;;;;4954116;28;20043;-76
2023/05/13 10:46:24;;;;;;;5.95;2.47;;;32.20;29.00;;;;;;4953096;28;20520;-74
2023/05/13 10:48:59;;;;;;;5.88;2.45;;;32.60;28.40;;;;;;4954011;28;20051;-74
2023/05/13 10:51:26;;;;;;;;;;;32.30;25.90;;;;;;4941052;29;20051;-76
2023/05/13 10:53:56;;;;;;;9.48;2.67;;;30.70;26.10;;;;;;4943967;28;19926;-76
2023/05/13 10:56:26;;;;;;;4.85;2.70;;;30.00;29.60;;;;;;4938683;28;20732;-76
2023/05/13 10:58:57;;;;;;;4.35;2.72;;;30.40;29.80;;;;;;4958704;28;20047;-77
2023/05/13 11:01:34;;;;;;;8.52;2.53;;;30.10;29.40;;;;;;4930605;28;20055;-77
2023/05/13 11:04:03;;;;;;;20.08;2.97;;;29.40;29.60;;;;;;4936780;29;20489;-77
2023/05/13 11:06:35;;;;;;;3.53;2.67;;;29.60;28.30;;;;;;4942846;29;20513;-76
2023/05/13 11:09:27;;;;;;;4.15;2.30;;;29.40;29.80;;;;;;4957709;28;20051;-77
2023/05/13 11:11:58;;;;;;;7.40;2.33;;;30.70;27.60;;;;;;4941479;28;20048;-76
2023/05/13 11:14:29;;;;;;;14.73;2.55;;;30.80;27.00;;;;;;4943127;29;20055;-77
2023/05/13 11:17:03;;;;;;;9.20;2.50;;;30.40;27.30;;;;;;4958571;28;20070;-76
2023/05/13 11:19:31;;;;;;;10.20;2.25;;;30.60;28.10;;;;;;4955641;28;20257;-77
2023/05/13 11:22:09;;;;;;;12.20;2.63;;;30.80;27.70;;;;;;4939836;28;20460;-76
2023/05/13 11:24:36;;;;;;;9.98;2.35;;;31.30;29.20;;;;;;4942730;29;20161;-77
2023/05/13 11:27:19;;;;;;;8.43;2.45;;;32.10;27.60;;;;;;4946247;29;20047;-77
2023/05/13 11:29:49;;;;;;;5.90;2.00;;;31.10;26.90;;;;;;4944963;28;20051;-77
2023/05/13 11:32:52;;;;;;;6.63;2.15;;;30.00;27.90;;;;;;4941500;29;20051;-76
2023/05/13 11:35:28;;;;;;;6.05;2.28;;;30.60;27.50;;;;;;4941750;28;20052;-76
2023/05/13 11:37:56;;;;;;;7.60;2.50;;;30.70;29.10;;;;;;4944539;28;20134;-76
2023/05/13 11:40:35;;;;;;;14.98;2.55;;;30.70;27.90;;;;;;4941749;28;20058;-76
2023/05/13 11:43:04;;;;;;;3.33;2.35;;;30.90;28.20;;;;;;4943959;29;20058;-76
2023/05/13 11:45:32;;;;;;;5.53;2.60;;;31.80;28.10;;;;;;4961757;28;20381;-75
2023/05/13 11:48:20;;;;;;;4.18;2.22;;;32.00;27.10;;;;;;4942996;29;20070;-75
2023/05/13 11:50:49;;;;;;;5.07;2.42;;;32.50;27.20;;;;;;4945888;29;20142;-76
2023/05/13 11:53:22;;;;;;;5.55;2.55;;;32.20;26.80;;;;;;4943253;28;20047;-76
2023/05/13 11:55:50;;;;;;;5.78;2.35;;;32.30;26.70;;;;;;4947486;28;20055;-76
2023/05/13 11:58:19;;;;;;;2.28;1.95;;;33.00;27.80;;;;;;4950146;28;20058;-75
2023/05/13 12:00:46;;;;;;;7.18;2.80;;;32.20;26.20;;;;;;4945661;29;20062;-76
2023/05/13 12:03:14;;;;;;;5.72;2.10;;;31.30;26.40;;;;;;4941226;28;20058;-75
2023/05/13 12:05:43;;;;;;;6.88;2.40;;;30.90;26.50;;;;;;4943397;28;20051;-76
2023/05/13 12:08:10;;;;;;;5.15;2.20;;;30.80;25.40;;;;;;4946774;28;20803;-75
2023/05/13 12:10:44;;;;;;;4.53;2.22;;;30.40;28.10;;;;;;4943200;28;20382;-76
2023/05/13 12:13:11;;;;;;;5.82;2.60;;;28.80;29.30;;;;;;4949374;28;20043;-76
2023/05/13 12:15:38;;;;;;;6.40;2.65;;;29.30;28.80;;;;;;4940832;28;20146;-75
2023/05/13 12:18:06;;;;;;;7.18;2.55;;;28.90;27.90;;;;;;4940257;29;20466;-76
2023/05/13 12:20:34;;;;;;;8.77;2.40;;;30.00;27.20;;;;;;4941583;29;20055;-76
2023/05/13 12:23:01;;;;;;;5.18;2.35;;;30.20;29.50;;;;;;4945646;29;20352;-76
2023/05/13 12:25:45;;;;;;;4.35;1.98;;;31.00;28.50;;;;;;4960752;28;20059;-76
2023/05/13 12:28:18;;;;;;;12.00;2.25;;;31.40;26.70;;;;;;4939612;29;20043;-76
2023/05/13 12:30:55;;;;;;;5.82;2.10;;;31.60;27.10;;;;;;4946094;28;20055;-76
2023/05/13 12:33:23;;;;;;;3.17;2.00;;;32.00;27.70;;;;;;4960297;28;20047;-76
2023/05/13 12:35:52;;;;;;;10.70;3.83;;;32.50;26.40;;;;;;4940414;28;20051;-76
2023/05/13 12:38:23;;;;;;;20.23;2.90;;;31.20;26.70;;;;;;4943292;28;20066;-76
2023/05/13 12:40:51;;;;;;;6.63;2.42;;;30.80;27.70;;;;;;4942633;29;20058;-76
2023/05/13 12:43:19;;;;;;;2.45;2.22;;;31.10;27.60;;;;;;4945542;28;20134;-76
2023/05/13 12:45:50;;;;;;;5.20;2.30;;;31.60;27.00;;;;;;4944302;29;20535;-76
2023/05/13 12:48:23;;;;;;;6.10;2.30;;;31.30;26.30;;;;;;4940251;29;20451;-76
2023/05/13 12:50:50;;;;;;;8.65;2.30;;;31.00;27.50;;;;;;4944675;29;20411;-76
2023/05/13 12:53:17;;;;;;;33.78;4.00;;;30.90;24.80;;;;;;4938636;29;20482;-76
2023/05/13 12:55:44;;;;;;;6.80;2.78;;;30.40;27.70;;;;;;4938397;28;20052;-76
2023/05/13 12:58:12;;;;;;;3.05;1.88;;;30.50;27.00;;;;;;4940426;28;20499;-76
2023/05/13 13:00:39;;;;;;;5.65;2.33;;;30.20;24.70;;;;;;4944313;29;20076;-76